sensor_id;sensor_type;location;lat;lon;timestamp;temperature;humidity
47590;DHT22;33316;52.298;9.056;2023-01-01T00:02:22;15.50;69.80
47590;DHT22;33316;52.298;9.056;2023-01-01T00:04:49;15.50;69.50
47590;DHT22;33316;52.298;9.056;2023-01-01T00:07:15;15.50;69.70
47590;DHT22;33316;52.298;9.056;2023-01-01T00:09:42;15.50;69.60
47590;DHT22;33316;52.298;9.056;2023-01-01T00:12:27;15.50;69.70
47590;DHT22;33316;52.298;9.056;2023-01-01T00:14:54;15.50;69.70
47590;DHT22;33316;52.298;9.056;2023-01-01T00:17:21;15.50;69.60
47590;DHT22;33316;52.298;9.056;2023-01-01T00:19:47;15.50;69.40
47590;DHT22;33316;52.298;9.056;2023-01-01T00:22:14;15.50;69.40
47590;DHT22;33316;52.298;9.056;2023-01-01T00:24:41;15.50;69.50
47590;DHT22;33316;52.298;9.056;2023-01-01T00:27:08;15.60;69.60
47590;DHT22;33316;52.298;9.056;2023-01-01T00:29:36;15.60;69.60
47590;DHT22;33316;52.298;9.056;2023-01-01T00:32:03;15.60;69.50
47590;DHT22;33316;52.298;9.056;2023-01-01T00:34:30;15.60;69.40
47590;DHT22;33316;52.298;9.056;2023-01-01T00:36:56;15.60;69.40
47590;DHT22;33316;52.298;9.056;2023-01-01T00:39:23;15.60;69.20
47590;DHT22;33316;52.298;9.056;2023-01-01T00:41:50;15.60;69.50
47590;DHT22;33316;52.298;9.056;2023-01-01T00:44:16;15.60;69.50
47590;DHT22;33316;52.298;9.056;2023-01-01T00:46:44;15.60;69.30
47590;DHT22;33316;52.298;9.056;2023-01-01T00:49:11;15.60;69.00
47590;DHT22;33316;52.298;9.056;2023-01-01T00:51:38;15.60;69.00
47590;DHT22;33316;52.298;9.056;2023-01-01T00:54:05;15.60;69.00
47590;DHT22;33316;52.298;9.056;2023-01-01T00:56:31;15.60;69.00
47590;DHT22;33316;52.298;9.056;2023-01-01T00:58:59;15.60;69.00
47590;DHT22;33316;52.298;9.056;2023-01-01T01:01:26;15.60;69.10
47590;DHT22;33316;52.298;9.056;2023-01-01T01:03:54;15.60;69.10
47590;DHT22;33316;52.298;9.056;2023-01-01T01:06:21;15.70;69.20
47590;DHT22;33316;52.298;9.056;2023-01-01T01:08:49;15.70;69.20
47590;DHT22;33316;52.298;9.056;2023-01-01T01:11:18;15.70;69.20
47590;DHT22;33316;52.298;9.056;2023-01-01T01:13:47;15.70;68.80
47590;DHT22;33316;52.298;9.056;2023-01-01T01:16:16;15.70;68.80
47590;DHT22;33316;52.298;9.056;2023-01-01T01:18:43;15.70;68.60
47590;DHT22;33316;52.298;9.056;2023-01-01T01:21:14;15.70;68.40
47590;DHT22;33316;52.298;9.056;2023-01-01T01:23:41;15.70;68.40
47590;DHT22;33316;52.298;9.056;2023-01-01T01:26:10;15.80;68.70
47590;DHT22;33316;52.298;9.056;2023-01-01T01:28:37;15.80;69.00
47590;DHT22;33316;52.298;9.056;2023-01-01T01:31:05;15.80;69.20
47590;DHT22;33316;52.298;9.056;2023-01-01T01:33:32;15.80;69.10
47590;DHT22;33316;52.298;9.056;2023-01-01T01:35:59;15.80;69.40
47590;DHT22;33316;52.298;9.056;2023-01-01T01:38:27;15.80;69.90
47590;DHT22;33316;52.298;9.056;2023-01-01T01:40:54;15.80;70.40
47590;DHT22;33316;52.298;9.056;2023-01-01T01:43:23;15.70;70.40
47590;DHT22;33316;52.298;9.056;2023-01-01T01:45:53;15.70;70.70
47590;DHT22;33316;52.298;9.056;2023-01-01T01:48:21;15.70;70.70
47590;DHT22;33316;52.298;9.056;2023-01-01T01:50:49;15.70;70.70
47590;DHT22;33316;52.298;9.056;2023-01-01T01:53:20;15.70;70.70
47590;DHT22;33316;52.298;9.056;2023-01-01T01:55:54;15.70;70.50
47590;DHT22;33316;52.298;9.056;2023-01-01T01:58:21;15.70;69.90
47590;DHT22;33316;52.298;9.056;2023-01-01T02:00:48;15.70;69.70
47590;DHT22;33316;52.298;9.056;2023-01-01T02:03:19;15.70;69.70
47590;DHT22;33316;52.298;9.056;2023-01-01T02:05:49;15.70;69.60
47590;DHT22;33316;52.298;9.056;2023-01-01T02:08:17;15.70;69.50
47590;DHT22;33316;52.298;9.056;2023-01-01T02:10:44;15.70;69.20
47590;DHT22;33316;52.298;9.056;2023-01-01T02:13:12;15.70;69.00
47590;DHT22;33316;52.298;9.056;2023-01-01T02:15:54;15.70;69.80
47590;DHT22;33316;52.298;9.056;2023-01-01T02:18:24;15.70;68.80
47590;DHT22;33316;52.298;9.056;2023-01-01T02:20:57;15.70;69.00
47590;DHT22;33316;52.298;9.056;2023-01-01T02:23:52;15.70;68.80
47590;DHT22;33316;52.298;9.056;2023-01-01T02:26:28;15.70;68.30
47590;DHT22;33316;52.298;9.056;2023-01-01T02:29:10;15.70;68.20
47590;DHT22;33316;52.298;9.056;2023-01-01T02:31:43;15.70;68.40
47590;DHT22;33316;52.298;9.056;2023-01-01T02:34:15;15.70;68.20
47590;DHT22;33316;52.298;9.056;2023-01-01T02:36:47;15.70;68.00
47590;DHT22;33316;52.298;9.056;2023-01-01T02:39:17;15.60;68.10
47590;DHT22;33316;52.298;9.056;2023-01-01T02:41:48;15.60;68.30
47590;DHT22;33316;52.298;9.056;2023-01-01T02:44:18;15.60;68.10
47590;DHT22;33316;52.298;9.056;2023-01-01T02:46:45;15.60;68.10
47590;DHT22;33316;52.298;9.056;2023-01-01T02:49:11;15.60;67.90
47590;DHT22;33316;52.298;9.056;2023-01-01T02:51:49;15.60;67.90
47590;DHT22;33316;52.298;9.056;2023-01-01T02:54:24;15.60;67.90
47590;DHT22;33316;52.298;9.056;2023-01-01T02:56:59;15.60;67.80
47590;DHT22;33316;52.298;9.056;2023-01-01T02:59:33;15.60;67.80
47590;DHT22;33316;52.298;9.056;2023-01-01T03:02:24;15.60;67.60
47590;DHT22;33316;52.298;9.056;2023-01-01T03:05:04;15.60;67.80
47590;DHT22;33316;52.298;9.056;2023-01-01T03:07:40;15.50;67.80
47590;DHT22;33316;52.298;9.056;2023-01-01T03:10:12;15.50;67.60
47590;DHT22;33316;52.298;9.056;2023-01-01T03:12:44;15.50;67.50
47590;DHT22;33316;52.298;9.056;2023-01-01T03:15:19;15.50;67.30
47590;DHT22;33316;52.298;9.056;2023-01-01T03:17:56;15.50;67.20
47590;DHT22;33316;52.298;9.056;2023-01-01T03:20:27;15.50;67.20
47590;DHT22;33316;52.298;9.056;2023-01-01T03:22:59;15.50;67.20
47590;DHT22;33316;52.298;9.056;2023-01-01T03:25:31;15.50;67.10
47590;DHT22;33316;52.298;9.056;2023-01-01T03:28:01;15.50;67.00
47590;DHT22;33316;52.298;9.056;2023-01-01T03:30:31;15.50;66.90
47590;DHT22;33316;52.298;9.056;2023-01-01T03:33:03;15.50;66.80
47590;DHT22;33316;52.298;9.056;2023-01-01T03:35:37;15.40;66.50
47590;DHT22;33316;52.298;9.056;2023-01-01T03:38:09;15.50;66.40
47590;DHT22;33316;52.298;9.056;2023-01-01T03:40:37;15.40;66.00
47590;DHT22;33316;52.298;9.056;2023-01-01T03:43:08;15.40;66.20
47590;DHT22;33316;52.298;9.056;2023-01-01T03:45:41;15.40;66.00
47590;DHT22;33316;52.298;9.056;2023-01-01T03:48:09;15.40;65.90
47590;DHT22;33316;52.298;9.056;2023-01-01T03:50:44;15.40;65.70
47590;DHT22;33316;52.298;9.056;2023-01-01T03:53:22;15.40;65.30
47590;DHT22;33316;52.298;9.056;2023-01-01T03:55:57;15.40;64.90
47590;DHT22;33316;52.298;9.056;2023-01-01T03:58:34;15.40;64.90
47590;DHT22;33316;52.298;9.056;2023-01-01T04:01:08;15.40;64.90
47590;DHT22;33316;52.298;9.056;2023-01-01T04:03:37;15.40;65.00
47590;DHT22;33316;52.298;9.056;2023-01-01T04:06:06;15.40;64.90
47590;DHT22;33316;52.298;9.056;2023-01-01T04:08:34;15.40;65.00
47590;DHT22;33316;52.298;9.056;2023-01-01T04:11:06;15.40;65.00
47590;DHT22;33316;52.298;9.056;2023-01-01T04:13:49;15.40;64.90
47590;DHT22;33316;52.298;9.056;2023-01-01T04:16:17;15.40;65.20
47590;DHT22;33316;52.298;9.056;2023-01-01T04:18:44;15.30;65.10
47590;DHT22;33316;52.298;9.056;2023-01-01T04:21:11;15.30;65.20
47590;DHT22;33316;52.298;9.056;2023-01-01T04:23:37;15.30;65.10
47590;DHT22;33316;52.298;9.056;2023-01-01T04:26:04;15.30;65.30
47590;DHT22;33316;52.298;9.056;2023-01-01T04:28:31;15.30;65.10
47590;DHT22;33316;52.298;9.056;2023-01-01T04:31:00;15.30;64.90
47590;DHT22;33316;52.298;9.056;2023-01-01T04:33:28;15.30;65.20
47590;DHT22;33316;52.298;9.056;2023-01-01T04:35:55;15.30;65.30
47590;DHT22;33316;52.298;9.056;2023-01-01T04:38:22;15.30;65.40
47590;DHT22;33316;52.298;9.056;2023-01-01T04:40:56;15.30;65.40
47590;DHT22;33316;52.298;9.056;2023-01-01T04:43:23;15.30;65.20
47590;DHT22;33316;52.298;9.056;2023-01-01T04:45:54;15.30;65.30
47590;DHT22;33316;52.298;9.056;2023-01-01T04:48:21;15.30;65.40
47590;DHT22;33316;52.298;9.056;2023-01-01T04:50:54;15.30;65.40
47590;DHT22;33316;52.298;9.056;2023-01-01T04:53:21;15.30;65.40
47590;DHT22;33316;52.298;9.056;2023-01-01T04:55:48;15.30;65.60
47590;DHT22;33316;52.298;9.056;2023-01-01T04:58:15;15.30;65.60
47590;DHT22;33316;52.298;9.056;2023-01-01T05:00:42;15.30;65.60
47590;DHT22;33316;52.298;9.056;2023-01-01T05:03:08;15.30;65.70
47590;DHT22;33316;52.298;9.056;2023-01-01T05:05:35;15.30;65.40
47590;DHT22;33316;52.298;9.056;2023-01-01T05:08:03;15.20;65.30
47590;DHT22;33316;52.298;9.056;2023-01-01T05:10:30;15.20;65.40
47590;DHT22;33316;52.298;9.056;2023-01-01T05:12:56;15.20;65.60
47590;DHT22;33316;52.298;9.056;2023-01-01T05:15:23;15.20;65.70
47590;DHT22;33316;52.298;9.056;2023-01-01T05:17:50;15.20;65.70
47590;DHT22;33316;52.298;9.056;2023-01-01T05:20:17;15.20;65.50
47590;DHT22;33316;52.298;9.056;2023-01-01T05:22:44;15.20;65.60
47590;DHT22;33316;52.298;9.056;2023-01-01T05:25:12;15.20;65.60
47590;DHT22;33316;52.298;9.056;2023-01-01T05:27:39;15.20;65.60
47590;DHT22;33316;52.298;9.056;2023-01-01T05:30:07;15.20;65.60
47590;DHT22;33316;52.298;9.056;2023-01-01T05:32:35;15.20;65.70
47590;DHT22;33316;52.298;9.056;2023-01-01T05:35:02;15.20;65.70
47590;DHT22;33316;52.298;9.056;2023-01-01T05:37:29;15.20;65.60
47590;DHT22;33316;52.298;9.056;2023-01-01T05:39:56;15.20;66.30
47590;DHT22;33316;52.298;9.056;2023-01-01T05:42:24;15.20;65.40
47590;DHT22;33316;52.298;9.056;2023-01-01T05:44:51;15.20;65.20
47590;DHT22;33316;52.298;9.056;2023-01-01T05:47:17;15.20;65.30
47590;DHT22;33316;52.298;9.056;2023-01-01T05:49:45;15.20;65.30
47590;DHT22;33316;52.298;9.056;2023-01-01T05:52:12;15.20;65.40
47590;DHT22;33316;52.298;9.056;2023-01-01T05:54:39;15.20;65.50
47590;DHT22;33316;52.298;9.056;2023-01-01T05:57:06;15.20;65.30
47590;DHT22;33316;52.298;9.056;2023-01-01T05:59:34;15.20;65.60
47590;DHT22;33316;52.298;9.056;2023-01-01T06:02:00;15.20;66.10
47590;DHT22;33316;52.298;9.056;2023-01-01T06:04:27;15.20;65.30
47590;DHT22;33316;52.298;9.056;2023-01-01T06:06:54;15.20;65.60
47590;DHT22;33316;52.298;9.056;2023-01-01T06:09:20;15.20;65.40
47590;DHT22;33316;52.298;9.056;2023-01-01T06:11:47;15.20;65.60
47590;DHT22;33316;52.298;9.056;2023-01-01T06:14:14;15.20;65.60
47590;DHT22;33316;52.298;9.056;2023-01-01T06:16:42;15.20;65.70
47590;DHT22;33316;52.298;9.056;2023-01-01T06:19:09;15.20;66.00
47590;DHT22;33316;52.298;9.056;2023-01-01T06:21:35;15.20;66.10
47590;DHT22;33316;52.298;9.056;2023-01-01T06:24:03;15.20;65.80
47590;DHT22;33316;52.298;9.056;2023-01-01T06:26:31;15.20;65.80
47590;DHT22;33316;52.298;9.056;2023-01-01T06:28:59;15.20;66.60
47590;DHT22;33316;52.298;9.056;2023-01-01T06:31:27;15.20;66.00
47590;DHT22;33316;52.298;9.056;2023-01-01T06:33:56;15.20;66.10
47590;DHT22;33316;52.298;9.056;2023-01-01T06:36:24;15.10;65.80
47590;DHT22;33316;52.298;9.056;2023-01-01T06:38:54;15.10;66.00
47590;DHT22;33316;52.298;9.056;2023-01-01T06:41:22;15.10;66.00
47590;DHT22;33316;52.298;9.056;2023-01-01T06:43:49;15.10;66.00
47590;DHT22;33316;52.298;9.056;2023-01-01T06:46:18;15.10;66.10
47590;DHT22;33316;52.298;9.056;2023-01-01T06:48:46;15.10;66.10
47590;DHT22;33316;52.298;9.056;2023-01-01T06:51:16;15.10;66.20
47590;DHT22;33316;52.298;9.056;2023-01-01T06:53:43;15.10;66.20
47590;DHT22;33316;52.298;9.056;2023-01-01T06:56:11;15.00;66.20
47590;DHT22;33316;52.298;9.056;2023-01-01T06:58:38;15.00;66.20
47590;DHT22;33316;52.298;9.056;2023-01-01T07:01:08;15.00;66.10
47590;DHT22;33316;52.298;9.056;2023-01-01T07:03:35;15.00;66.30
47590;DHT22;33316;52.298;9.056;2023-01-01T07:06:02;15.00;66.30
47590;DHT22;33316;52.298;9.056;2023-01-01T07:08:30;15.00;66.40
47590;DHT22;33316;52.298;9.056;2023-01-01T07:10:57;15.00;66.50
47590;DHT22;33316;52.298;9.056;2023-01-01T07:13:23;15.00;66.50
47590;DHT22;33316;52.298;9.056;2023-01-01T07:15:50;15.00;66.50
47590;DHT22;33316;52.298;9.056;2023-01-01T07:18:18;15.00;66.80
47590;DHT22;33316;52.298;9.056;2023-01-01T07:20:48;15.00;66.90
47590;DHT22;33316;52.298;9.056;2023-01-01T07:23:15;15.00;66.90
47590;DHT22;33316;52.298;9.056;2023-01-01T07:25:43;15.00;66.90
47590;DHT22;33316;52.298;9.056;2023-01-01T07:28:10;15.00;66.80
47590;DHT22;33316;52.298;9.056;2023-01-01T07:30:37;15.00;66.70
47590;DHT22;33316;52.298;9.056;2023-01-01T07:33:04;15.00;66.60
47590;DHT22;33316;52.298;9.056;2023-01-01T07:35:31;15.00;66.60
47590;DHT22;33316;52.298;9.056;2023-01-01T07:37:57;15.00;66.50
47590;DHT22;33316;52.298;9.056;2023-01-01T07:40:24;15.00;66.70
47590;DHT22;33316;52.298;9.056;2023-01-01T07:42:52;15.00;66.90
47590;DHT22;33316;52.298;9.056;2023-01-01T07:45:19;15.00;66.80
47590;DHT22;33316;52.298;9.056;2023-01-01T07:47:49;15.00;66.90
47590;DHT22;33316;52.298;9.056;2023-01-01T07:50:17;15.00;66.90
47590;DHT22;33316;52.298;9.056;2023-01-01T07:52:43;15.00;66.90
47590;DHT22;33316;52.298;9.056;2023-01-01T07:55:11;15.00;66.90
47590;DHT22;33316;52.298;9.056;2023-01-01T07:57:39;15.00;66.80
47590;DHT22;33316;52.298;9.056;2023-01-01T08:00:08;15.00;66.90
47590;DHT22;33316;52.298;9.056;2023-01-01T08:02:35;15.00;66.90
47590;DHT22;33316;52.298;9.056;2023-01-01T08:05:02;15.00;66.90
47590;DHT22;33316;52.298;9.056;2023-01-01T08:07:30;15.00;66.90
47590;DHT22;33316;52.298;9.056;2023-01-01T08:09:56;15.00;67.20
47590;DHT22;33316;52.298;9.056;2023-01-01T08:12:23;15.00;67.40
47590;DHT22;33316;52.298;9.056;2023-01-01T08:14:50;15.00;67.70
47590;DHT22;33316;52.298;9.056;2023-01-01T08:17:18;15.00;67.90
47590;DHT22;33316;52.298;9.056;2023-01-01T08:19:45;15.00;68.20
47590;DHT22;33316;52.298;9.056;2023-01-01T08:22:13;15.00;68.60
47590;DHT22;33316;52.298;9.056;2023-01-01T08:24:40;15.00;68.80
47590;DHT22;33316;52.298;9.056;2023-01-01T08:27:09;15.00;68.90
47590;DHT22;33316;52.298;9.056;2023-01-01T08:29:37;15.00;69.00
47590;DHT22;33316;52.298;9.056;2023-01-01T08:32:04;15.00;69.00
47590;DHT22;33316;52.298;9.056;2023-01-01T08:34:32;14.90;69.00
47590;DHT22;33316;52.298;9.056;2023-01-01T08:36:59;14.90;69.00
47590;DHT22;33316;52.298;9.056;2023-01-01T08:39:26;14.90;69.10
47590;DHT22;33316;52.298;9.056;2023-01-01T08:41:53;14.90;69.20
47590;DHT22;33316;52.298;9.056;2023-01-01T08:44:19;14.90;69.40
47590;DHT22;33316;52.298;9.056;2023-01-01T08:46:46;14.90;69.70
47590;DHT22;33316;52.298;9.056;2023-01-01T08:49:13;14.90;70.10
47590;DHT22;33316;52.298;9.056;2023-01-01T08:51:41;14.90;70.30
47590;DHT22;33316;52.298;9.056;2023-01-01T08:54:08;14.90;70.40
47590;DHT22;33316;52.298;9.056;2023-01-01T08:56:35;14.90;70.50
47590;DHT22;33316;52.298;9.056;2023-01-01T08:59:02;14.80;70.60
47590;DHT22;33316;52.298;9.056;2023-01-01T09:01:29;14.80;71.20
47590;DHT22;33316;52.298;9.056;2023-01-01T09:03:56;14.80;70.90
47590;DHT22;33316;52.298;9.056;2023-01-01T09:06:23;14.90;71.30
47590;DHT22;33316;52.298;9.056;2023-01-01T09:08:51;14.80;71.60
47590;DHT22;33316;52.298;9.056;2023-01-01T09:11:21;14.70;71.90
47590;DHT22;33316;52.298;9.056;2023-01-01T09:13:49;14.70;72.10
47590;DHT22;33316;52.298;9.056;2023-01-01T09:16:16;14.70;72.40
47590;DHT22;33316;52.298;9.056;2023-01-01T09:18:43;14.70;72.60
47590;DHT22;33316;52.298;9.056;2023-01-01T09:21:10;14.70;72.90
47590;DHT22;33316;52.298;9.056;2023-01-01T09:23:36;14.70;73.30
47590;DHT22;33316;52.298;9.056;2023-01-01T09:26:06;14.70;73.80
47590;DHT22;33316;52.298;9.056;2023-01-01T09:28:34;14.60;74.20
47590;DHT22;33316;52.298;9.056;2023-01-01T09:31:01;14.60;74.50
47590;DHT22;33316;52.298;9.056;2023-01-01T09:33:30;14.60;74.80
47590;DHT22;33316;52.298;9.056;2023-01-01T09:36:11;14.50;75.00
47590;DHT22;33316;52.298;9.056;2023-01-01T09:38:38;14.50;75.30
47590;DHT22;33316;52.298;9.056;2023-01-01T09:41:13;14.50;75.30
47590;DHT22;33316;52.298;9.056;2023-01-01T09:43:48;14.50;75.60
47590;DHT22;33316;52.298;9.056;2023-01-01T09:46:17;14.50;75.80
47590;DHT22;33316;52.298;9.056;2023-01-01T09:48:49;14.40;76.00
47590;DHT22;33316;52.298;9.056;2023-01-01T09:51:18;14.40;76.40
47590;DHT22;33316;52.298;9.056;2023-01-01T09:53:52;14.40;76.70
47590;DHT22;33316;52.298;9.056;2023-01-01T09:56:26;14.30;77.20
47590;DHT22;33316;52.298;9.056;2023-01-01T09:58:54;14.40;77.50
47590;DHT22;33316;52.298;9.056;2023-01-01T10:01:32;14.30;77.80
47590;DHT22;33316;52.298;9.056;2023-01-01T10:04:10;14.30;78.30
47590;DHT22;33316;52.298;9.056;2023-01-01T10:06:43;14.30;78.80
47590;DHT22;33316;52.298;9.056;2023-01-01T10:09:16;14.20;79.10
47590;DHT22;33316;52.298;9.056;2023-01-01T10:11:54;14.20;80.20
47590;DHT22;33316;52.298;9.056;2023-01-01T10:14:25;14.20;80.00
47590;DHT22;33316;52.298;9.056;2023-01-01T10:16:57;14.10;80.00
47590;DHT22;33316;52.298;9.056;2023-01-01T10:19:31;14.10;80.30
47590;DHT22;33316;52.298;9.056;2023-01-01T10:22:02;14.10;80.70
47590;DHT22;33316;52.298;9.056;2023-01-01T10:24:43;14.10;81.70
47590;DHT22;33316;52.298;9.056;2023-01-01T10:27:25;14.00;81.00
47590;DHT22;33316;52.298;9.056;2023-01-01T10:29:53;14.10;81.10
47590;DHT22;33316;52.298;9.056;2023-01-01T10:32:26;14.10;81.10
47590;DHT22;33316;52.298;9.056;2023-01-01T10:34:53;14.10;81.30
47590;DHT22;33316;52.298;9.056;2023-01-01T10:37:21;14.10;81.10
47590;DHT22;33316;52.298;9.056;2023-01-01T10:39:48;14.10;81.10
47590;DHT22;33316;52.298;9.056;2023-01-01T10:42:17;14.00;81.70
47590;DHT22;33316;52.298;9.056;2023-01-01T10:44:44;14.10;81.00
47590;DHT22;33316;52.298;9.056;2023-01-01T10:47:24;14.00;80.90
47590;DHT22;33316;52.298;9.056;2023-01-01T10:49:54;14.00;81.10
47590;DHT22;33316;52.298;9.056;2023-01-01T10:52:28;14.00;81.10
47590;DHT22;33316;52.298;9.056;2023-01-01T10:54:56;14.00;81.10
47590;DHT22;33316;52.298;9.056;2023-01-01T10:57:32;13.90;81.10
47590;DHT22;33316;52.298;9.056;2023-01-01T11:00:15;13.90;81.20
47590;DHT22;33316;52.298;9.056;2023-01-01T11:02:45;13.80;81.40
47590;DHT22;33316;52.298;9.056;2023-01-01T11:05:15;13.80;81.30
47590;DHT22;33316;52.298;9.056;2023-01-01T11:07:42;13.80;81.40
47590;DHT22;33316;52.298;9.056;2023-01-01T11:10:18;13.70;81.60
47590;DHT22;33316;52.298;9.056;2023-01-01T11:12:47;13.80;81.80
47590;DHT22;33316;52.298;9.056;2023-01-01T11:15:22;13.70;81.80
47590;DHT22;33316;52.298;9.056;2023-01-01T11:20:50;13.70;82.40
47590;DHT22;33316;52.298;9.056;2023-01-01T11:23:23;13.70;82.00
47590;DHT22;33316;52.298;9.056;2023-01-01T11:25:57;13.60;82.20
47590;DHT22;33316;52.298;9.056;2023-01-01T11:28:26;13.60;82.50
47590;DHT22;33316;52.298;9.056;2023-01-01T11:33:44;13.50;83.30
47590;DHT22;33316;52.298;9.056;2023-01-01T11:36:20;13.50;82.90
47590;DHT22;33316;52.298;9.056;2023-01-01T11:38:48;13.50;83.30
47590;DHT22;33316;52.298;9.056;2023-01-01T11:41:16;13.50;83.60
47590;DHT22;33316;52.298;9.056;2023-01-01T11:43:45;13.50;83.80
47590;DHT22;33316;52.298;9.056;2023-01-01T11:46:21;13.50;84.10
47590;DHT22;33316;52.298;9.056;2023-01-01T11:48:49;13.50;84.30
47590;DHT22;33316;52.298;9.056;2023-01-01T11:51:28;13.50;84.40
47590;DHT22;33316;52.298;9.056;2023-01-01T11:54:09;13.50;84.60
47590;DHT22;33316;52.298;9.056;2023-01-01T11:56:36;13.50;84.70
47590;DHT22;33316;52.298;9.056;2023-01-01T11:59:11;13.50;84.70
47590;DHT22;33316;52.298;9.056;2023-01-01T12:01:44;13.50;84.80
47590;DHT22;33316;52.298;9.056;2023-01-01T12:04:16;13.50;84.90
47590;DHT22;33316;52.298;9.056;2023-01-01T12:06:48;13.50;85.00
47590;DHT22;33316;52.298;9.056;2023-01-01T12:09:22;13.50;85.10
47590;DHT22;33316;52.298;9.056;2023-01-01T12:11:51;13.50;85.20
47590;DHT22;33316;52.298;9.056;2023-01-01T12:14:24;13.50;85.20
47590;DHT22;33316;52.298;9.056;2023-01-01T12:16:55;13.50;85.30
47590;DHT22;33316;52.298;9.056;2023-01-01T12:19:26;13.50;85.30
47590;DHT22;33316;52.298;9.056;2023-01-01T12:21:57;13.50;85.30
47590;DHT22;33316;52.298;9.056;2023-01-01T12:24:25;13.50;85.30
47590;DHT22;33316;52.298;9.056;2023-01-01T12:27:05;13.50;85.30
47590;DHT22;33316;52.298;9.056;2023-01-01T12:29:48;13.50;85.40
47590;DHT22;33316;52.298;9.056;2023-01-01T12:32:24;13.50;85.30
47590;DHT22;33316;52.298;9.056;2023-01-01T12:34:56;13.50;85.30
47590;DHT22;33316;52.298;9.056;2023-01-01T12:37:36;13.50;85.40
47590;DHT22;33316;52.298;9.056;2023-01-01T12:40:38;13.50;85.50
47590;DHT22;33316;52.298;9.056;2023-01-01T12:43:09;13.50;85.60
47590;DHT22;33316;52.298;9.056;2023-01-01T12:45:51;13.50;85.60
47590;DHT22;33316;52.298;9.056;2023-01-01T12:48:33;13.50;85.80
47590;DHT22;33316;52.298;9.056;2023-01-01T12:51:11;13.50;86.00
47590;DHT22;33316;52.298;9.056;2023-01-01T12:53:48;13.40;86.00
47590;DHT22;33316;52.298;9.056;2023-01-01T12:56:22;13.50;86.20
47590;DHT22;33316;52.298;9.056;2023-01-01T12:58:56;13.50;86.30
47590;DHT22;33316;52.298;9.056;2023-01-01T13:01:26;13.50;86.40
47590;DHT22;33316;52.298;9.056;2023-01-01T13:03:56;13.50;86.40
47590;DHT22;33316;52.298;9.056;2023-01-01T13:06:27;13.50;86.50
47590;DHT22;33316;52.298;9.056;2023-01-01T13:09:01;13.60;86.50
47590;DHT22;33316;52.298;9.056;2023-01-01T13:11:29;13.60;86.50
47590;DHT22;33316;52.298;9.056;2023-01-01T13:13:56;13.60;86.50
47590;DHT22;33316;52.298;9.056;2023-01-01T13:16:35;13.60;86.50
47590;DHT22;33316;52.298;9.056;2023-01-01T13:19:03;13.70;86.60
47590;DHT22;33316;52.298;9.056;2023-01-01T13:21:30;13.70;86.40
47590;DHT22;33316;52.298;9.056;2023-01-01T13:24:02;13.70;86.40
47590;DHT22;33316;52.298;9.056;2023-01-01T13:26:40;13.70;86.40
47590;DHT22;33316;52.298;9.056;2023-01-01T13:29:36;13.70;86.30
47590;DHT22;33316;52.298;9.056;2023-01-01T13:32:10;13.70;86.30
47590;DHT22;33316;52.298;9.056;2023-01-01T13:37:40;13.70;85.90
47590;DHT22;33316;52.298;9.056;2023-01-01T13:43:30;13.70;85.90
47590;DHT22;33316;52.298;9.056;2023-01-01T13:45:58;13.70;85.70
47590;DHT22;33316;52.298;9.056;2023-01-01T13:52:00;13.70;85.40
47590;DHT22;33316;52.298;9.056;2023-01-01T13:57:56;13.70;85.10
47590;DHT22;33316;52.298;9.056;2023-01-01T14:00:26;13.70;85.00
47590;DHT22;33316;52.298;9.056;2023-01-01T14:02:58;13.70;84.80
47590;DHT22;33316;52.298;9.056;2023-01-01T14:05:30;13.70;84.80
47590;DHT22;33316;52.298;9.056;2023-01-01T14:07:58;13.60;84.90
47590;DHT22;33316;52.298;9.056;2023-01-01T14:10:26;13.70;84.90
47590;DHT22;33316;52.298;9.056;2023-01-01T14:12:56;13.70;84.90
47590;DHT22;33316;52.298;9.056;2023-01-01T14:15:29;13.70;84.90
47590;DHT22;33316;52.298;9.056;2023-01-01T14:17:58;13.60;84.80
47590;DHT22;33316;52.298;9.056;2023-01-01T14:20:32;13.70;84.80
47590;DHT22;33316;52.298;9.056;2023-01-01T14:23:04;13.60;84.70
47590;DHT22;33316;52.298;9.056;2023-01-01T14:25:35;13.60;84.70
47590;DHT22;33316;52.298;9.056;2023-01-01T14:28:03;13.60;84.60
47590;DHT22;33316;52.298;9.056;2023-01-01T14:30:31;13.60;84.50
47590;DHT22;33316;52.298;9.056;2023-01-01T14:33:00;13.60;84.60
47590;DHT22;33316;52.298;9.056;2023-01-01T14:35:28;13.60;84.50
47590;DHT22;33316;52.298;9.056;2023-01-01T14:37:55;13.60;84.50
47590;DHT22;33316;52.298;9.056;2023-01-01T14:40:24;13.60;84.50
47590;DHT22;33316;52.298;9.056;2023-01-01T14:42:57;13.60;84.40
47590;DHT22;33316;52.298;9.056;2023-01-01T14:45:25;13.60;84.40
47590;DHT22;33316;52.298;9.056;2023-01-01T14:47:54;13.50;84.40
47590;DHT22;33316;52.298;9.056;2023-01-01T14:50:28;13.60;84.30
47590;DHT22;33316;52.298;9.056;2023-01-01T14:53:01;13.50;84.40
47590;DHT22;33316;52.298;9.056;2023-01-01T14:55:33;13.50;84.40
47590;DHT22;33316;52.298;9.056;2023-01-01T14:58:01;13.50;84.40
47590;DHT22;33316;52.298;9.056;2023-01-01T15:00:30;13.50;85.20
47590;DHT22;33316;52.298;9.056;2023-01-01T15:03:05;13.50;84.40
47590;DHT22;33316;52.298;9.056;2023-01-01T15:05:35;13.50;85.20
47590;DHT22;33316;52.298;9.056;2023-01-01T15:08:03;13.50;84.40
47590;DHT22;33316;52.298;9.056;2023-01-01T15:10:33;13.50;84.40
47590;DHT22;33316;52.298;9.056;2023-01-01T15:13:03;13.50;84.40
47590;DHT22;33316;52.298;9.056;2023-01-01T15:15:39;13.50;84.40
47590;DHT22;33316;52.298;9.056;2023-01-01T15:18:36;13.50;84.20
47590;DHT22;33316;52.298;9.056;2023-01-01T15:21:11;13.50;84.20
47590;DHT22;33316;52.298;9.056;2023-01-01T15:23:51;13.50;84.10
47590;DHT22;33316;52.298;9.056;2023-01-01T15:26:25;13.50;84.00
47590;DHT22;33316;52.298;9.056;2023-01-01T15:28:54;13.50;84.00
47590;DHT22;33316;52.298;9.056;2023-01-01T15:31:20;13.50;83.80
47590;DHT22;33316;52.298;9.056;2023-01-01T15:33:48;13.40;83.80
47590;DHT22;33316;52.298;9.056;2023-01-01T15:36:22;13.40;83.70
47590;DHT22;33316;52.298;9.056;2023-01-01T15:38:52;13.50;83.70
47590;DHT22;33316;52.298;9.056;2023-01-01T15:41:39;13.40;83.60
47590;DHT22;33316;52.298;9.056;2023-01-01T15:44:08;13.40;83.60
47590;DHT22;33316;52.298;9.056;2023-01-01T15:46:45;13.40;83.50
47590;DHT22;33316;52.298;9.056;2023-01-01T15:49:22;13.50;83.40
47590;DHT22;33316;52.298;9.056;2023-01-01T15:51:51;13.40;83.30
47590;DHT22;33316;52.298;9.056;2023-01-01T15:54:19;13.40;83.30
47590;DHT22;33316;52.298;9.056;2023-01-01T15:56:46;13.40;83.30
47590;DHT22;33316;52.298;9.056;2023-01-01T15:59:22;13.40;83.30
47590;DHT22;33316;52.298;9.056;2023-01-01T16:01:55;13.40;83.30
47590;DHT22;33316;52.298;9.056;2023-01-01T16:04:30;13.40;83.30
47590;DHT22;33316;52.298;9.056;2023-01-01T16:07:01;13.40;83.30
47590;DHT22;33316;52.298;9.056;2023-01-01T16:09:28;13.40;83.30